sensor_id;sensor_type;location;lat;lon;timestamp;pressure;altitude;pressure_sealevel;temperature;humidity
43281;BME280;62175;49.416;8.690;2024-01-07T00:02:06;100054.39;;;9.71;58.15
43281;BME280;62175;49.416;8.690;2024-01-07T00:04:33;100057.58;;;9.59;56.74
43281;BME280;62175;49.416;8.690;2024-01-07T00:07:01;100057.87;;;9.81;57.45
43281;BME280;62175;49.416;8.690;2024-01-07T00:09:28;100062.34;;;9.78;57.26
43281;BME280;62175;49.416;8.690;2024-01-07T00:11:55;100062.72;;;9.63;56.84
43281;BME280;62175;49.416;8.690;2024-01-07T00:14:22;100061.40;;;9.57;57.80
43281;BME280;62175;49.416;8.690;2024-01-07T00:16:49;100063.95;;;9.60;57.82
43281;BME280;62175;49.416;8.690;2024-01-07T00:19:17;100062.63;;;9.73;57.94
43281;BME280;62175;49.416;8.690;2024-01-07T00:21:44;100066.77;;;9.77;57.41
43281;BME280;62175;49.416;8.690;2024-01-07T00:24:11;100067.42;;;10.11;57.28
43281;BME280;62175;49.416;8.690;2024-01-07T00:26:38;100063.96;;;9.93;57.03
43281;BME280;62175;49.416;8.690;2024-01-07T00:29:05;100064.05;;;9.81;57.64
43281;BME280;62175;49.416;8.690;2024-01-07T00:31:32;100065.14;;;9.86;56.91
43281;BME280;62175;49.416;8.690;2024-01-07T00:33:59;100065.51;;;9.98;56.77
43281;BME280;62175;49.416;8.690;2024-01-07T00:36:26;100068.55;;;9.88;57.65
43281;BME280;62175;49.416;8.690;2024-01-07T00:38:53;100070.31;;;9.80;58.85
43281;BME280;62175;49.416;8.690;2024-01-07T00:41:20;100070.52;;;9.83;57.12
43281;BME280;62175;49.416;8.690;2024-01-07T00:43:48;100070.58;;;9.67;57.38
43281;BME280;62175;49.416;8.690;2024-01-07T00:46:15;100070.54;;;9.82;57.22
43281;BME280;62175;49.416;8.690;2024-01-07T00:48:42;100069.58;;;9.80;58.48
43281;BME280;62175;49.416;8.690;2024-01-07T00:51:09;100072.85;;;10.10;57.35
43281;BME280;62175;49.416;8.690;2024-01-07T00:53:35;100073.58;;;9.85;57.78
43281;BME280;62175;49.416;8.690;2024-01-07T00:56:03;100075.92;;;9.78;57.73
43281;BME280;62175;49.416;8.690;2024-01-07T00:58:30;100073.76;;;9.80;57.70
43281;BME280;62175;49.416;8.690;2024-01-07T01:00:57;100076.39;;;9.77;57.64
43281;BME280;62175;49.416;8.690;2024-01-07T01:03:24;100077.15;;;9.85;56.88
43281;BME280;62175;49.416;8.690;2024-01-07T01:05:51;100080.02;;;9.84;58.44
43281;BME280;62175;49.416;8.690;2024-01-07T01:08:18;100080.36;;;9.83;56.98
43281;BME280;62175;49.416;8.690;2024-01-07T01:10:45;100075.18;;;9.81;57.37
43281;BME280;62175;49.416;8.690;2024-01-07T01:13:13;100079.95;;;9.80;57.17
43281;BME280;62175;49.416;8.690;2024-01-07T01:15:40;100081.49;;;9.85;57.38
43281;BME280;62175;49.416;8.690;2024-01-07T01:18:06;100083.77;;;10.00;57.38
43281;BME280;62175;49.416;8.690;2024-01-07T01:20:34;100086.42;;;9.89;57.19
43281;BME280;62175;49.416;8.690;2024-01-07T01:23:01;100086.74;;;9.73;57.42
43281;BME280;62175;49.416;8.690;2024-01-07T01:25:28;100089.84;;;9.81;58.03
43281;BME280;62175;49.416;8.690;2024-01-07T01:27:56;100089.96;;;9.82;57.85
43281;BME280;62175;49.416;8.690;2024-01-07T01:30:22;100093.92;;;9.80;56.77
43281;BME280;62175;49.416;8.690;2024-01-07T01:32:49;100093.46;;;9.81;57.89
43281;BME280;62175;49.416;8.690;2024-01-07T01:35:17;100094.55;;;9.68;57.23
43281;BME280;62175;49.416;8.690;2024-01-07T01:37:44;100095.81;;;9.82;57.17
43281;BME280;62175;49.416;8.690;2024-01-07T01:40:12;100098.74;;;9.90;57.92
43281;BME280;62175;49.416;8.690;2024-01-07T01:42:42;100101.68;;;9.77;56.75
43281;BME280;62175;49.416;8.690;2024-01-07T01:45:10;100098.64;;;9.65;56.64
43281;BME280;62175;49.416;8.690;2024-01-07T01:47:37;100101.03;;;9.67;57.79
43281;BME280;62175;49.416;8.690;2024-01-07T01:50:05;100101.69;;;9.94;57.53
43281;BME280;62175;49.416;8.690;2024-01-07T01:52:32;100103.40;;;9.79;58.25
43281;BME280;62175;49.416;8.690;2024-01-07T01:55:00;100105.82;;;9.60;56.68
43281;BME280;62175;49.416;8.690;2024-01-07T01:57:33;100104.19;;;9.59;57.17
43281;BME280;62175;49.416;8.690;2024-01-07T02:00:02;100107.04;;;9.67;58.87
43281;BME280;62175;49.416;8.690;2024-01-07T02:02:30;100106.24;;;9.73;57.42
43281;BME280;62175;49.416;8.690;2024-01-07T02:04:57;100107.97;;;9.80;57.08
43281;BME280;62175;49.416;8.690;2024-01-07T02:07:24;100107.70;;;9.74;57.39
43281;BME280;62175;49.416;8.690;2024-01-07T02:09:52;100110.27;;;9.51;56.97
43281;BME280;62175;49.416;8.690;2024-01-07T02:12:19;100111.51;;;9.97;57.23
43281;BME280;62175;49.416;8.690;2024-01-07T02:14:46;100111.11;;;9.58;56.26
43281;BME280;62175;49.416;8.690;2024-01-07T02:17:14;100116.51;;;9.27;57.31
43281;BME280;62175;49.416;8.690;2024-01-07T02:19:41;100115.84;;;9.27;57.02
43281;BME280;62175;49.416;8.690;2024-01-07T02:22:08;100116.36;;;9.63;57.19
43281;BME280;62175;49.416;8.690;2024-01-07T02:24:36;100116.06;;;9.78;57.80
43281;BME280;62175;49.416;8.690;2024-01-07T02:27:03;100117.85;;;9.41;57.37
43281;BME280;62175;49.416;8.690;2024-01-07T02:29:30;100116.01;;;9.56;58.10
43281;BME280;62175;49.416;8.690;2024-01-07T02:31:58;100114.50;;;9.37;58.26
43281;BME280;62175;49.416;8.690;2024-01-07T02:34:25;100109.58;;;9.74;57.81
43281;BME280;62175;49.416;8.690;2024-01-07T02:36:52;100110.03;;;9.47;58.01
43281;BME280;62175;49.416;8.690;2024-01-07T02:39:20;100110.03;;;9.50;57.80
43281;BME280;62175;49.416;8.690;2024-01-07T02:41:48;100109.07;;;9.54;57.42
43281;BME280;62175;49.416;8.690;2024-01-07T02:44:15;100108.08;;;9.42;58.12
43281;BME280;62175;49.416;8.690;2024-01-07T02:46:42;100107.74;;;9.45;57.71
43281;BME280;62175;49.416;8.690;2024-01-07T02:49:10;100110.20;;;9.35;57.33
43281;BME280;62175;49.416;8.690;2024-01-07T02:51:37;100109.32;;;9.51;59.19
43281;BME280;62175;49.416;8.690;2024-01-07T02:54:04;100107.30;;;9.96;58.26
43281;BME280;62175;49.416;8.690;2024-01-07T02:56:31;100107.03;;;9.49;57.58
43281;BME280;62175;49.416;8.690;2024-01-07T02:58:58;100108.13;;;9.69;57.59
43281;BME280;62175;49.416;8.690;2024-01-07T03:01:26;100111.54;;;9.42;58.07
43281;BME280;62175;49.416;8.690;2024-01-07T03:03:53;100110.92;;;9.54;58.05
43281;BME280;62175;49.416;8.690;2024-01-07T03:06:20;100110.68;;;9.75;57.72
43281;BME280;62175;49.416;8.690;2024-01-07T03:08:47;100109.15;;;9.76;57.96
43281;BME280;62175;49.416;8.690;2024-01-07T03:11:15;100112.90;;;9.75;58.35
43281;BME280;62175;49.416;8.690;2024-01-07T03:13:42;100115.29;;;9.71;57.56
43281;BME280;62175;49.416;8.690;2024-01-07T03:16:19;100119.02;;;9.71;57.70
43281;BME280;62175;49.416;8.690;2024-01-07T03:18:46;100120.08;;;9.82;58.07
43281;BME280;62175;49.416;8.690;2024-01-07T03:21:17;100123.27;;;9.64;57.79
43281;BME280;62175;49.416;8.690;2024-01-07T03:23:44;100123.12;;;9.51;57.81
43281;BME280;62175;49.416;8.690;2024-01-07T03:26:12;100124.81;;;9.22;57.40
43281;BME280;62175;49.416;8.690;2024-01-07T03:28:40;100121.78;;;9.49;58.18
43281;BME280;62175;49.416;8.690;2024-01-07T03:31:09;100123.60;;;9.59;57.37
43281;BME280;62175;49.416;8.690;2024-01-07T03:33:36;100122.15;;;9.50;57.47
43281;BME280;62175;49.416;8.690;2024-01-07T03:36:07;100125.37;;;9.64;57.63
43281;BME280;62175;49.416;8.690;2024-01-07T03:38:34;100127.71;;;9.67;57.19
43281;BME280;62175;49.416;8.690;2024-01-07T03:41:02;100128.49;;;9.60;56.83
43281;BME280;62175;49.416;8.690;2024-01-07T03:43:29;100137.56;;;9.36;56.80
43281;BME280;62175;49.416;8.690;2024-01-07T03:45:57;100133.14;;;9.49;58.23
43281;BME280;62175;49.416;8.690;2024-01-07T03:48:24;100134.20;;;9.44;57.75
43281;BME280;62175;49.416;8.690;2024-01-07T03:50:51;100134.16;;;9.46;57.23
43281;BME280;62175;49.416;8.690;2024-01-07T03:53:18;100135.66;;;9.75;57.60
43281;BME280;62175;49.416;8.690;2024-01-07T03:55:46;100141.70;;;9.49;58.12
43281;BME280;62175;49.416;8.690;2024-01-07T03:58:13;100144.70;;;9.75;56.95
43281;BME280;62175;49.416;8.690;2024-01-07T04:00:40;100144.82;;;9.57;57.81
43281;BME280;62175;49.416;8.690;2024-01-07T04:03:08;100143.74;;;9.46;57.60
43281;BME280;62175;49.416;8.690;2024-01-07T04:05:35;100147.19;;;9.66;57.62
43281;BME280;62175;49.416;8.690;2024-01-07T04:08:03;100146.14;;;9.63;57.32
43281;BME280;62175;49.416;8.690;2024-01-07T04:10:30;100144.13;;;9.61;57.37
43281;BME280;62175;49.416;8.690;2024-01-07T04:12:57;100147.27;;;9.57;57.67
43281;BME280;62175;49.416;8.690;2024-01-07T04:15:25;100150.68;;;9.64;58.26
43281;BME280;62175;49.416;8.690;2024-01-07T04:17:51;100149.05;;;9.52;57.22
43281;BME280;62175;49.416;8.690;2024-01-07T04:20:18;100152.97;;;9.49;56.99
43281;BME280;62175;49.416;8.690;2024-01-07T04:22:46;100156.76;;;9.78;57.13
43281;BME280;62175;49.416;8.690;2024-01-07T04:25:13;100158.58;;;9.74;57.09
43281;BME280;62175;49.416;8.690;2024-01-07T04:27:40;100164.25;;;9.07;57.14
43281;BME280;62175;49.416;8.690;2024-01-07T04:30:08;100159.59;;;9.46;56.53
43281;BME280;62175;49.416;8.690;2024-01-07T04:32:35;100167.91;;;8.84;57.07
43281;BME280;62175;49.416;8.690;2024-01-07T04:35:02;100163.82;;;9.24;56.14
43281;BME280;62175;49.416;8.690;2024-01-07T04:37:29;100165.73;;;9.53;57.08
43281;BME280;62175;49.416;8.690;2024-01-07T04:39:56;100167.65;;;9.40;56.81
43281;BME280;62175;49.416;8.690;2024-01-07T04:42:24;100166.43;;;9.22;57.31
43281;BME280;62175;49.416;8.690;2024-01-07T04:44:51;100170.67;;;9.39;57.26
43281;BME280;62175;49.416;8.690;2024-01-07T04:47:26;100176.10;;;9.23;57.39
43281;BME280;62175;49.416;8.690;2024-01-07T04:49:54;100178.70;;;9.26;58.03
43281;BME280;62175;49.416;8.690;2024-01-07T04:52:21;100170.79;;;9.49;56.55
43281;BME280;62175;49.416;8.690;2024-01-07T04:54:49;100175.85;;;9.41;56.14
43281;BME280;62175;49.416;8.690;2024-01-07T04:57:16;100178.98;;;9.65;56.61
43281;BME280;62175;49.416;8.690;2024-01-07T04:59:44;100182.51;;;9.42;56.01
43281;BME280;62175;49.416;8.690;2024-01-07T05:02:11;100188.02;;;9.27;56.39
43281;BME280;62175;49.416;8.690;2024-01-07T05:04:38;100188.38;;;9.38;56.38
43281;BME280;62175;49.416;8.690;2024-01-07T05:07:05;100192.18;;;9.33;56.48
43281;BME280;62175;49.416;8.690;2024-01-07T05:09:33;100194.72;;;9.39;57.14
43281;BME280;62175;49.416;8.690;2024-01-07T05:12:00;100190.68;;;9.72;56.68
43281;BME280;62175;49.416;8.690;2024-01-07T05:14:27;100197.12;;;9.33;55.99
43281;BME280;62175;49.416;8.690;2024-01-07T05:16:54;100196.30;;;9.50;56.05
43281;BME280;62175;49.416;8.690;2024-01-07T05:19:22;100205.41;;;9.15;56.65
43281;BME280;62175;49.416;8.690;2024-01-07T05:21:49;100206.06;;;9.20;57.39
43281;BME280;62175;49.416;8.690;2024-01-07T05:24:16;100204.95;;;9.47;57.35
43281;BME280;62175;49.416;8.690;2024-01-07T05:26:44;100202.71;;;9.60;57.50
43281;BME280;62175;49.416;8.690;2024-01-07T05:29:11;100203.90;;;9.66;56.14
43281;BME280;62175;49.416;8.690;2024-01-07T05:31:39;100207.90;;;9.30;56.31
43281;BME280;62175;49.416;8.690;2024-01-07T05:34:06;100210.15;;;9.66;56.18
43281;BME280;62175;49.416;8.690;2024-01-07T05:36:33;100215.96;;;9.50;56.66
43281;BME280;62175;49.416;8.690;2024-01-07T05:39:00;100212.96;;;9.62;57.93
43281;BME280;62175;49.416;8.690;2024-01-07T05:41:27;100216.63;;;9.35;56.89
43281;BME280;62175;49.416;8.690;2024-01-07T05:43:55;100213.79;;;9.45;56.17
43281;BME280;62175;49.416;8.690;2024-01-07T05:46:22;100220.42;;;9.32;56.61
43281;BME280;62175;49.416;8.690;2024-01-07T05:48:49;100221.85;;;9.28;56.30
43281;BME280;62175;49.416;8.690;2024-01-07T05:51:17;100226.58;;;9.63;57.27
43281;BME280;62175;49.416;8.690;2024-01-07T05:53:44;100225.55;;;9.62;56.59
43281;BME280;62175;49.416;8.690;2024-01-07T05:56:11;100225.77;;;9.49;56.30
43281;BME280;62175;49.416;8.690;2024-01-07T05:58:39;100226.86;;;9.53;56.42
43281;BME280;62175;49.416;8.690;2024-01-07T06:01:07;100232.58;;;9.36;56.38
43281;BME280;62175;49.416;8.690;2024-01-07T06:03:34;100233.39;;;9.40;56.57
43281;BME280;62175;49.416;8.690;2024-01-07T06:06:01;100234.91;;;9.29;56.70
43281;BME280;62175;49.416;8.690;2024-01-07T06:08:29;100238.09;;;9.41;56.50
43281;BME280;62175;49.416;8.690;2024-01-07T06:10:56;100235.87;;;9.51;56.86
43281;BME280;62175;49.416;8.690;2024-01-07T06:13:23;100236.72;;;9.79;57.89
43281;BME280;62175;49.416;8.690;2024-01-07T06:15:50;100241.46;;;9.30;57.18
43281;BME280;62175;49.416;8.690;2024-01-07T06:18:17;100241.56;;;9.48;58.08
43281;BME280;62175;49.416;8.690;2024-01-07T06:20:45;100242.65;;;9.21;56.52
43281;BME280;62175;49.416;8.690;2024-01-07T06:23:12;100243.89;;;9.30;58.09
43281;BME280;62175;49.416;8.690;2024-01-07T06:25:39;100247.27;;;9.58;57.87
43281;BME280;62175;49.416;8.690;2024-01-07T06:28:06;100249.17;;;9.51;56.65
43281;BME280;62175;49.416;8.690;2024-01-07T06:30:33;100252.18;;;9.36;56.99
43281;BME280;62175;49.416;8.690;2024-01-07T06:33:01;100259.96;;;9.31;57.13
43281;BME280;62175;49.416;8.690;2024-01-07T06:35:28;100261.80;;;9.61;57.53
43281;BME280;62175;49.416;8.690;2024-01-07T06:37:55;100267.15;;;9.41;57.21
43281;BME280;62175;49.416;8.690;2024-01-07T06:40:23;100267.51;;;9.47;56.99
43281;BME280;62175;49.416;8.690;2024-01-07T06:42:50;100273.04;;;9.44;57.04
43281;BME280;62175;49.416;8.690;2024-01-07T06:45:17;100276.64;;;9.67;56.66
43281;BME280;62175;49.416;8.690;2024-01-07T06:47:44;100276.03;;;9.27;57.46
43281;BME280;62175;49.416;8.690;2024-01-07T06:50:11;100279.73;;;9.69;57.27
43281;BME280;62175;49.416;8.690;2024-01-07T06:52:39;100281.89;;;9.37;57.34
43281;BME280;62175;49.416;8.690;2024-01-07T06:55:07;100283.48;;;9.35;57.58
43281;BME280;62175;49.416;8.690;2024-01-07T06:57:34;100287.10;;;9.37;57.73
43281;BME280;62175;49.416;8.690;2024-01-07T07:00:02;100291.25;;;9.85;57.46
43281;BME280;62175;49.416;8.690;2024-01-07T07:02:29;100293.53;;;9.42;58.14
43281;BME280;62175;49.416;8.690;2024-01-07T07:04:56;100294.00;;;9.58;58.42
43281;BME280;62175;49.416;8.690;2024-01-07T07:07:24;100295.60;;;9.44;57.13
43281;BME280;62175;49.416;8.690;2024-01-07T07:09:51;100302.89;;;9.49;57.88
43281;BME280;62175;49.416;8.690;2024-01-07T07:12:18;100303.78;;;9.49;57.80
43281;BME280;62175;49.416;8.690;2024-01-07T07:14:45;100310.49;;;9.53;59.23
43281;BME280;62175;49.416;8.690;2024-01-07T07:17:12;100311.37;;;9.73;57.75
43281;BME280;62175;49.416;8.690;2024-01-07T07:19:39;100314.93;;;9.64;57.63
43281;BME280;62175;49.416;8.690;2024-01-07T07:22:07;100317.41;;;9.47;58.06
43281;BME280;62175;49.416;8.690;2024-01-07T07:24:34;100318.70;;;9.51;57.89
43281;BME280;62175;49.416;8.690;2024-01-07T07:27:01;100319.74;;;9.39;57.79
43281;BME280;62175;49.416;8.690;2024-01-07T07:29:27;100322.61;;;9.64;56.93
43281;BME280;62175;49.416;8.690;2024-01-07T07:31:55;100327.80;;;9.56;57.67
43281;BME280;62175;49.416;8.690;2024-01-07T07:34:22;100330.41;;;9.61;58.00
43281;BME280;62175;49.416;8.690;2024-01-07T07:36:49;100334.49;;;9.63;57.50
43281;BME280;62175;49.416;8.690;2024-01-07T07:39:16;100336.24;;;9.46;57.01
43281;BME280;62175;49.416;8.690;2024-01-07T07:41:43;100335.60;;;9.23;58.34
43281;BME280;62175;49.416;8.690;2024-01-07T07:44:10;100340.55;;;9.53;58.44
43281;BME280;62175;49.416;8.690;2024-01-07T07:46:37;100342.65;;;9.74;58.46
43281;BME280;62175;49.416;8.690;2024-01-07T07:49:05;100347.93;;;9.82;57.30
43281;BME280;62175;49.416;8.690;2024-01-07T07:51:32;100354.02;;;9.70;57.85
43281;BME280;62175;49.416;8.690;2024-01-07T07:53:59;100358.75;;;9.53;58.10
43281;BME280;62175;49.416;8.690;2024-01-07T07:56:26;100353.91;;;9.56;57.27
43281;BME280;62175;49.416;8.690;2024-01-07T07:58:53;100359.75;;;9.51;57.03
43281;BME280;62175;49.416;8.690;2024-01-07T08:01:20;100361.49;;;9.58;57.23
43281;BME280;62175;49.416;8.690;2024-01-07T08:03:48;100364.71;;;9.59;57.40
43281;BME280;62175;49.416;8.690;2024-01-07T08:06:15;100363.80;;;9.54;56.98
43281;BME280;62175;49.416;8.690;2024-01-07T08:08:42;100367.44;;;9.48;56.75
43281;BME280;62175;49.416;8.690;2024-01-07T08:11:09;100368.03;;;9.84;56.66
43281;BME280;62175;49.416;8.690;2024-01-07T08:13:36;100370.26;;;9.59;57.69
43281;BME280;62175;49.416;8.690;2024-01-07T08:16:04;100375.30;;;9.66;56.70
43281;BME280;62175;49.416;8.690;2024-01-07T08:18:31;100375.53;;;9.55;56.52
43281;BME280;62175;49.416;8.690;2024-01-07T08:20:59;100375.59;;;9.60;57.27
43281;BME280;62175;49.416;8.690;2024-01-07T08:23:26;100377.35;;;9.94;56.28
43281;BME280;62175;49.416;8.690;2024-01-07T08:25:53;100380.75;;;9.72;56.86
43281;BME280;62175;49.416;8.690;2024-01-07T08:28:20;100378.20;;;9.33;56.85
43281;BME280;62175;49.416;8.690;2024-01-07T08:30:47;100379.54;;;9.80;56.22
43281;BME280;62175;49.416;8.690;2024-01-07T08:33:14;100385.49;;;9.58;56.76
43281;BME280;62175;49.416;8.690;2024-01-07T08:35:41;100388.32;;;9.48;56.57
43281;BME280;62175;49.416;8.690;2024-01-07T08:38:08;100390.30;;;9.54;57.63
43281;BME280;62175;49.416;8.690;2024-01-07T08:40:35;100396.90;;;9.75;56.66
43281;BME280;62175;49.416;8.690;2024-01-07T08:43:03;100398.25;;;9.55;56.38
43281;BME280;62175;49.416;8.690;2024-01-07T08:45:30;100401.41;;;9.47;55.93
43281;BME280;62175;49.416;8.690;2024-01-07T08:47:57;100407.17;;;9.16;57.06
43281;BME280;62175;49.416;8.690;2024-01-07T08:50:24;100411.45;;;9.24;56.39
43281;BME280;62175;49.416;8.690;2024-01-07T08:52:52;100415.94;;;9.50;56.10
43281;BME280;62175;49.416;8.690;2024-01-07T08:55:19;100419.81;;;9.26;56.35
43281;BME280;62175;49.416;8.690;2024-01-07T08:57:46;100423.17;;;9.37;55.98
43281;BME280;62175;49.416;8.690;2024-01-07T09:00:14;100427.91;;;9.78;56.18
43281;BME280;62175;49.416;8.690;2024-01-07T09:02:42;100431.43;;;9.44;56.29
43281;BME280;62175;49.416;8.690;2024-01-07T09:05:09;100433.05;;;9.58;56.54
43281;BME280;62175;49.416;8.690;2024-01-07T09:07:36;100437.38;;;9.56;55.59
43281;BME280;62175;49.416;8.690;2024-01-07T09:10:04;100436.90;;;9.68;56.50
43281;BME280;62175;49.416;8.690;2024-01-07T09:12:31;100443.16;;;9.86;55.14
43281;BME280;62175;49.416;8.690;2024-01-07T09:14:58;100444.66;;;9.56;55.16
43281;BME280;62175;49.416;8.690;2024-01-07T09:17:25;100448.29;;;9.78;55.52
43281;BME280;62175;49.416;8.690;2024-01-07T09:19:52;100448.66;;;9.65;54.90
43281;BME280;62175;49.416;8.690;2024-01-07T09:22:19;100458.51;;;9.34;56.09
43281;BME280;62175;49.416;8.690;2024-01-07T09:24:46;100454.32;;;9.71;55.95
43281;BME280;62175;49.416;8.690;2024-01-07T09:27:14;100455.04;;;9.69;55.60
43281;BME280;62175;49.416;8.690;2024-01-07T09:29:41;100456.98;;;9.55;54.46
43281;BME280;62175;49.416;8.690;2024-01-07T09:32:08;100461.59;;;9.64;54.89
43281;BME280;62175;49.416;8.690;2024-01-07T09:34:35;100462.89;;;9.80;53.98
43281;BME280;62175;49.416;8.690;2024-01-07T09:37:03;100466.91;;;9.68;52.99
43281;BME280;62175;49.416;8.690;2024-01-07T09:39:30;100467.50;;;9.64;52.15
43281;BME280;62175;49.416;8.690;2024-01-07T09:41:57;100464.63;;;9.65;51.80
43281;BME280;62175;49.416;8.690;2024-01-07T09:44:25;100468.19;;;9.69;51.80
43281;BME280;62175;49.416;8.690;2024-01-07T09:46:52;100470.65;;;9.79;50.57
43281;BME280;62175;49.416;8.690;2024-01-07T09:49:21;100469.97;;;9.83;50.25
43281;BME280;62175;49.416;8.690;2024-01-07T09:51:50;100477.76;;;9.49;51.32
43281;BME280;62175;49.416;8.690;2024-01-07T09:54:21;100475.09;;;9.49;50.80
43281;BME280;62175;49.416;8.690;2024-01-07T09:56:52;100474.55;;;9.46;50.33
43281;BME280;62175;49.416;8.690;2024-01-07T09:59:22;100480.13;;;9.19;49.06
43281;BME280;62175;49.416;8.690;2024-01-07T10:01:50;100474.46;;;9.37;47.45
43281;BME280;62175;49.416;8.690;2024-01-07T10:04:18;100477.75;;;9.64;49.76
43281;BME280;62175;49.416;8.690;2024-01-07T10:06:45;100478.19;;;9.46;50.59
43281;BME280;62175;49.416;8.690;2024-01-07T10:09:13;100482.17;;;9.42;50.38
43281;BME280;62175;49.416;8.690;2024-01-07T10:11:40;100486.97;;;9.59;50.43
43281;BME280;62175;49.416;8.690;2024-01-07T10:14:07;100487.58;;;9.50;50.65
43281;BME280;62175;49.416;8.690;2024-01-07T10:16:35;100489.48;;;9.47;49.58
43281;BME280;62175;49.416;8.690;2024-01-07T10:19:02;100490.86;;;9.26;49.85
43281;BME280;62175;49.416;8.690;2024-01-07T10:21:29;100490.44;;;9.58;50.20
43281;BME280;62175;49.416;8.690;2024-01-07T10:24:07;100488.15;;;9.49;49.96
43281;BME280;62175;49.416;8.690;2024-01-07T10:26:35;100494.99;;;9.61;50.26
43281;BME280;62175;49.416;8.690;2024-01-07T10:29:02;100494.37;;;9.31;48.84
43281;BME280;62175;49.416;8.690;2024-01-07T10:31:29;100495.22;;;9.47;48.35
43281;BME280;62175;49.416;8.690;2024-01-07T10:33:58;100497.47;;;9.48;49.96
43281;BME280;62175;49.416;8.690;2024-01-07T10:36:26;100500.90;;;9.36;49.15
43281;BME280;62175;49.416;8.690;2024-01-07T10:38:53;100498.43;;;9.42;48.32
43281;BME280;62175;49.416;8.690;2024-01-07T10:41:21;100500.50;;;9.41;48.21
43281;BME280;62175;49.416;8.690;2024-01-07T10:43:49;100516.50;;;9.15;48.14
43281;BME280;62175;49.416;8.690;2024-01-07T10:46:16;100512.35;;;9.44;47.40
43281;BME280;62175;49.416;8.690;2024-01-07T10:48:53;100505.88;;;9.33;47.81
43281;BME280;62175;49.416;8.690;2024-01-07T10:51:21;100506.84;;;9.23;48.69
43281;BME280;62175;49.416;8.690;2024-01-07T10:53:52;100511.60;;;9.24;47.72
43281;BME280;62175;49.416;8.690;2024-01-07T10:56:23;100512.56;;;9.38;46.97
43281;BME280;62175;49.416;8.690;2024-01-07T10:58:52;100512.75;;;9.19;47.72
43281;BME280;62175;49.416;8.690;2024-01-07T11:01:19;100511.54;;;9.34;48.30
43281;BME280;62175;49.416;8.690;2024-01-07T11:03:55;100512.95;;;9.08;48.31
43281;BME280;62175;49.416;8.690;2024-01-07T11:06:30;100507.65;;;9.43;47.24
43281;BME280;62175;49.416;8.690;2024-01-07T11:09:03;100507.17;;;9.44;48.13
43281;BME280;62175;49.416;8.690;2024-01-07T11:11:37;100507.30;;;9.34;47.44
43281;BME280;62175;49.416;8.690;2024-01-07T11:14:22;100506.07;;;9.41;47.25
43281;BME280;62175;49.416;8.690;2024-01-07T11:17:00;100506.61;;;9.07;45.65
43281;BME280;62175;49.416;8.690;2024-01-07T11:19:28;100505.00;;;9.74;47.24
43281;BME280;62175;49.416;8.690;2024-01-07T11:22:21;100506.24;;;9.41;47.28
43281;BME280;62175;49.416;8.690;2024-01-07T11:24:48;100509.93;;;9.38;48.89
43281;BME280;62175;49.416;8.690;2024-01-07T11:27:16;100513.29;;;9.59;47.87
43281;BME280;62175;49.416;8.690;2024-01-07T11:29:43;100507.61;;;9.59;48.53
43281;BME280;62175;49.416;8.690;2024-01-07T11:32:12;100510.20;;;9.70;48.82
43281;BME280;62175;49.416;8.690;2024-01-07T11:34:40;100508.94;;;9.66;48.43
43281;BME280;62175;49.416;8.690;2024-01-07T11:37:10;100509.04;;;9.38;47.99
43281;BME280;62175;49.416;8.690;2024-01-07T11:39:37;100509.37;;;9.35;47.62
43281;BME280;62175;49.416;8.690;2024-01-07T11:42:05;100511.63;;;9.28;48.31
43281;BME280;62175;49.416;8.690;2024-01-07T11:44:34;100515.47;;;9.16;48.30
43281;BME280;62175;49.416;8.690;2024-01-07T11:47:02;100515.14;;;9.91;48.49
43281;BME280;62175;49.416;8.690;2024-01-07T11:49:29;100521.95;;;9.05;48.42
43281;BME280;62175;49.416;8.690;2024-01-07T11:51:56;100521.63;;;9.42;47.91
43281;BME280;62175;49.416;8.690;2024-01-07T11:54:24;100527.19;;;9.43;47.43
43281;BME280;62175;49.416;8.690;2024-01-07T11:56:52;100526.01;;;9.21;48.47
43281;BME280;62175;49.416;8.690;2024-01-07T11:59:19;100523.39;;;9.21;49.52
43281;BME280;62175;49.416;8.690;2024-01-07T12:01:46;100526.71;;;8.89;47.41
43281;BME280;62175;49.416;8.690;2024-01-07T12:04:13;100531.69;;;9.00;48.99
43281;BME280;62175;49.416;8.690;2024-01-07T12:06:40;100534.05;;;9.40;48.08
43281;BME280;62175;49.416;8.690;2024-01-07T12:09:07;100533.28;;;9.10;48.56
43281;BME280;62175;49.416;8.690;2024-01-07T12:11:38;100533.49;;;9.11;47.83
43281;BME280;62175;49.416;8.690;2024-01-07T12:14:06;100533.96;;;9.18;47.44
43281;BME280;62175;49.416;8.690;2024-01-07T12:16:34;100533.75;;;8.96;48.62
43281;BME280;62175;49.416;8.690;2024-01-07T12:19:01;100537.77;;;9.05;47.27
43281;BME280;62175;49.416;8.690;2024-01-07T12:21:29;100541.51;;;9.25;46.86
43281;BME280;62175;49.416;8.690;2024-01-07T12:23:57;100536.79;;;9.18;46.33
43281;BME280;62175;49.416;8.690;2024-01-07T12:26:26;100546.18;;;9.27;48.27
43281;BME280;62175;49.416;8.690;2024-01-07T12:28:59;100543.75;;;9.19;48.35
43281;BME280;62175;49.416;8.690;2024-01-07T12:31:27;100540.47;;;9.30;47.71
43281;BME280;62175;49.416;8.690;2024-01-07T12:33:54;100545.29;;;8.92;47.63
43281;BME280;62175;49.416;8.690;2024-01-07T12:36:24;100543.73;;;8.82;46.15
43281;BME280;62175;49.416;8.690;2024-01-07T12:38:52;100546.60;;;9.39;47.19
43281;BME280;62175;49.416;8.690;2024-01-07T12:41:20;100551.49;;;9.43;47.47
43281;BME280;62175;49.416;8.690;2024-01-07T12:43:47;100553.63;;;8.92;47.68
43281;BME280;62175;49.416;8.690;2024-01-07T12:46:14;100556.13;;;9.51;47.52
43281;BME280;62175;49.416;8.690;2024-01-07T12:48:41;100552.95;;;9.29;48.55
43281;BME280;62175;49.416;8.690;2024-01-07T12:51:09;100548.52;;;8.85;47.22
43281;BME280;62175;49.416;8.690;2024-01-07T12:53:37;100554.47;;;8.76;47.19
43281;BME280;62175;49.416;8.690;2024-01-07T12:56:04;100557.04;;;8.65;46.89
43281;BME280;62175;49.416;8.690;2024-01-07T12:58:32;100561.75;;;8.82;48.22
43281;BME280;62175;49.416;8.690;2024-01-07T13:00:59;100562.65;;;9.25;48.17
43281;BME280;62175;49.416;8.690;2024-01-07T13:03:25;100568.11;;;8.91;47.05